Terminal Aerodrome Forecast
Issued by NWS

Home | Current Version | Previous Version | Text Only | Print | Product List | Glossary On
Versions: 1 2 3 4 5 6 7 8 9 10 11 12
000
FTUS43 KAPX 201720
TAFTVC
TAF
KTVC 201720Z 2018/2118 14008KT P6SM BKN220 OVC250
     FM202300 14011G23KT P6SM BKN200 WS020/16040KT
     FM210300 15011G30KT P6SM OVC100 WS020/17050KT
     FM210600 17008KT P6SM VCSH BKN090 WS020/18050KT
     FM210800 18008KT 5SM BR VCSH OVC050 WS020/19045KT
     FM211000 20008KT 4SM SHRA BR OVC015 WS020/21040KT
     FM211200 23008KT P6SM OVC003
     FM211300 24007KT P6SM BKN008
     FM211700 27006KT P6SM SCT008=

USA.gov is the U.S. government's official web portal to all federal, state and local government web resources and services.